Deer Mountain, Utah
Current Conditions -  °F | °C
As of 7:53 PM on Monday 22 Dec 2014 (Local Time) from KEVW Reporting Station
Overcast Overcast  
Wind Chill: 12°   Ceiling: 4500
Heat Index: 26°   Visibility: 10mi
Dew Point: 19°   Wind: 20mph
Humidity: 75%   Direction: 360°N
Pressure: 30.03"   Gusts: NA
Location:  40.8065°N, 110.723°W
Report Text: KEVW 230253Z AUTO 36017KT 10SM BKN045 OVC075 M03/M07 A3003 RMK AO2 SLP180 60000 T10331072 53022
Loading
Personal Weather Stations






























Interactive Weather Map New forecast layout! Learn more

10-Day Weather Forecast

Advertisements
Track Severe Weather on mobile